sensor_id;sensor_type;location;lat;lon;timestamp;temperature;humidity
19567;DHT22;9930;49.240;8.548;2023-03-01T00:01:35;3.90;57.90
19567;DHT22;9930;49.240;8.548;2023-03-01T00:04:01;3.90;57.70
19567;DHT22;9930;49.240;8.548;2023-03-01T00:06:27;3.90;57.60
19567;DHT22;9930;49.240;8.548;2023-03-01T00:08:56;3.90;57.60
19567;DHT22;9930;49.240;8.548;2023-03-01T00:11:23;3.90;57.70
19567;DHT22;9930;49.240;8.548;2023-03-01T00:13:56;3.90;57.70
19567;DHT22;9930;49.240;8.548;2023-03-01T00:16:25;3.90;57.70
19567;DHT22;9930;49.240;8.548;2023-03-01T00:18:51;4.00;57.80
19567;DHT22;9930;49.240;8.548;2023-03-01T00:21:22;4.00;57.80
19567;DHT22;9930;49.240;8.548;2023-03-01T00:23:52;4.00;57.80
19567;DHT22;9930;49.240;8.548;2023-03-01T00:26:22;4.00;57.70
19567;DHT22;9930;49.240;8.548;2023-03-01T00:28:48;4.00;57.80
19567;DHT22;9930;49.240;8.548;2023-03-01T00:31:20;3.90;57.70
19567;DHT22;9930;49.240;8.548;2023-03-01T00:33:55;3.90;57.70
19567;DHT22;9930;49.240;8.548;2023-03-01T00:36:26;3.80;57.70
19567;DHT22;9930;49.240;8.548;2023-03-01T00:38:55;3.80;57.70
19567;DHT22;9930;49.240;8.548;2023-03-01T00:41:24;3.80;57.80
19567;DHT22;9930;49.240;8.548;2023-03-01T00:43:58;3.70;57.90
19567;DHT22;9930;49.240;8.548;2023-03-01T00:46:28;3.70;57.80
19567;DHT22;9930;49.240;8.548;2023-03-01T00:48:55;3.70;57.90
19567;DHT22;9930;49.240;8.548;2023-03-01T00:51:25;3.60;57.80
19567;DHT22;9930;49.240;8.548;2023-03-01T00:53:54;3.60;57.90
19567;DHT22;9930;49.240;8.548;2023-03-01T00:56:24;3.60;58.00
19567;DHT22;9930;49.240;8.548;2023-03-01T00:58:50;3.60;57.80
19567;DHT22;9930;49.240;8.548;2023-03-01T01:01:27;3.50;57.70
19567;DHT22;9930;49.240;8.548;2023-03-01T01:04:03;3.50;58.10
19567;DHT22;9930;49.240;8.548;2023-03-01T01:06:33;3.50;57.90
19567;DHT22;9930;49.240;8.548;2023-03-01T01:09:08;3.40;58.00
19567;DHT22;9930;49.240;8.548;2023-03-01T01:11:45;3.40;58.10
19567;DHT22;9930;49.240;8.548;2023-03-01T01:14:15;3.40;57.90
19567;DHT22;9930;49.240;8.548;2023-03-01T01:16:42;3.40;58.20
19567;DHT22;9930;49.240;8.548;2023-03-01T01:19:10;3.40;58.30
19567;DHT22;9930;49.240;8.548;2023-03-01T01:21:36;3.30;58.30
19567;DHT22;9930;49.240;8.548;2023-03-01T01:24:08;3.30;58.40
19567;DHT22;9930;49.240;8.548;2023-03-01T01:26:39;3.30;58.40
19567;DHT22;9930;49.240;8.548;2023-03-01T01:29:06;3.30;58.30
19567;DHT22;9930;49.240;8.548;2023-03-01T01:31:37;3.20;58.40
19567;DHT22;9930;49.240;8.548;2023-03-01T01:34:05;3.20;58.50
19567;DHT22;9930;49.240;8.548;2023-03-01T01:36:33;3.20;58.60
19567;DHT22;9930;49.240;8.548;2023-03-01T01:39:01;3.20;58.60
19567;DHT22;9930;49.240;8.548;2023-03-01T01:41:32;3.20;58.70
19567;DHT22;9930;49.240;8.548;2023-03-01T01:44:18;3.10;58.70
19567;DHT22;9930;49.240;8.548;2023-03-01T01:49:43;3.10;58.90
19567;DHT22;9930;49.240;8.548;2023-03-01T01:52:24;3.10;58.80
19567;DHT22;9930;49.240;8.548;2023-03-01T01:55:16;3.00;58.70
19567;DHT22;9930;49.240;8.548;2023-03-01T01:57:52;3.00;58.90
19567;DHT22;9930;49.240;8.548;2023-03-01T02:00:25;3.00;58.80
19567;DHT22;9930;49.240;8.548;2023-03-01T02:03:07;3.00;58.60
19567;DHT22;9930;49.240;8.548;2023-03-01T02:08:17;2.90;58.90
19567;DHT22;9930;49.240;8.548;2023-03-01T02:10:46;2.90;58.90
19567;DHT22;9930;49.240;8.548;2023-03-01T02:13:14;2.90;59.00
19567;DHT22;9930;49.240;8.548;2023-03-01T02:15:40;2.90;59.00
19567;DHT22;9930;49.240;8.548;2023-03-01T02:18:12;2.90;59.10
19567;DHT22;9930;49.240;8.548;2023-03-01T02:21:08;2.80;59.10
19567;DHT22;9930;49.240;8.548;2023-03-01T02:24:31;2.80;59.40
19567;DHT22;9930;49.240;8.548;2023-03-01T02:27:01;2.80;59.30
19567;DHT22;9930;49.240;8.548;2023-03-01T02:29:28;2.80;59.20
19567;DHT22;9930;49.240;8.548;2023-03-01T02:31:57;2.80;59.30
19567;DHT22;9930;49.240;8.548;2023-03-01T02:34:26;2.70;59.30
19567;DHT22;9930;49.240;8.548;2023-03-01T02:37:02;2.70;59.30
19567;DHT22;9930;49.240;8.548;2023-03-01T02:39:46;2.70;59.50
19567;DHT22;9930;49.240;8.548;2023-03-01T02:42:22;2.70;59.50
19567;DHT22;9930;49.240;8.548;2023-03-01T02:45:02;2.60;59.50
19567;DHT22;9930;49.240;8.548;2023-03-01T02:47:28;2.60;59.50
19567;DHT22;9930;49.240;8.548;2023-03-01T02:49:54;2.60;59.60
19567;DHT22;9930;49.240;8.548;2023-03-01T02:52:43;2.60;59.60
19567;DHT22;9930;49.240;8.548;2023-03-01T02:55:14;2.50;59.60
19567;DHT22;9930;49.240;8.548;2023-03-01T02:57:46;2.50;59.60
19567;DHT22;9930;49.240;8.548;2023-03-01T03:00:23;2.50;59.50
19567;DHT22;9930;49.240;8.548;2023-03-01T03:02:53;2.50;59.90
19567;DHT22;9930;49.240;8.548;2023-03-01T03:05:31;2.50;60.20
19567;DHT22;9930;49.240;8.548;2023-03-01T03:08:05;2.50;60.50
19567;DHT22;9930;49.240;8.548;2023-03-01T03:10:38;2.50;60.20
19567;DHT22;9930;49.240;8.548;2023-03-01T03:13:12;2.50;60.20
19567;DHT22;9930;49.240;8.548;2023-03-01T03:15:39;2.50;60.60
19567;DHT22;9930;49.240;8.548;2023-03-01T03:18:09;2.60;60.50
19567;DHT22;9930;49.240;8.548;2023-03-01T03:20:40;2.60;60.00
19567;DHT22;9930;49.240;8.548;2023-03-01T03:23:09;2.60;60.00
19567;DHT22;9930;49.240;8.548;2023-03-01T03:25:35;2.60;60.10
19567;DHT22;9930;49.240;8.548;2023-03-01T03:28:05;2.60;59.80
19567;DHT22;9930;49.240;8.548;2023-03-01T03:30:38;2.60;59.80
19567;DHT22;9930;49.240;8.548;2023-03-01T03:33:09;2.60;60.00
19567;DHT22;9930;49.240;8.548;2023-03-01T03:35:46;2.60;59.80
19567;DHT22;9930;49.240;8.548;2023-03-01T03:38:19;2.60;59.90
19567;DHT22;9930;49.240;8.548;2023-03-01T03:41:02;2.60;59.70
19567;DHT22;9930;49.240;8.548;2023-03-01T03:43:32;2.60;60.20
19567;DHT22;9930;49.240;8.548;2023-03-01T03:46:04;2.60;59.80
19567;DHT22;9930;49.240;8.548;2023-03-01T03:48:43;2.60;59.70
19567;DHT22;9930;49.240;8.548;2023-03-01T03:51:14;2.60;60.20
19567;DHT22;9930;49.240;8.548;2023-03-01T03:53:41;2.60;60.00
19567;DHT22;9930;49.240;8.548;2023-03-01T03:56:08;2.60;60.00
19567;DHT22;9930;49.240;8.548;2023-03-01T03:58:37;2.60;59.70
19567;DHT22;9930;49.240;8.548;2023-03-01T04:01:03;2.70;59.90
19567;DHT22;9930;49.240;8.548;2023-03-01T04:03:34;2.60;60.00
19567;DHT22;9930;49.240;8.548;2023-03-01T04:06:03;2.60;60.00
19567;DHT22;9930;49.240;8.548;2023-03-01T04:08:34;2.60;59.90
19567;DHT22;9930;49.240;8.548;2023-03-01T04:11:04;2.60;59.80
19567;DHT22;9930;49.240;8.548;2023-03-01T04:13:50;2.60;59.80
19567;DHT22;9930;49.240;8.548;2023-03-01T04:16:17;2.60;59.90
19567;DHT22;9930;49.240;8.548;2023-03-01T04:18:44;2.60;60.00
19567;DHT22;9930;49.240;8.548;2023-03-01T04:21:10;2.60;59.90
19567;DHT22;9930;49.240;8.548;2023-03-01T04:23:37;2.50;60.00
19567;DHT22;9930;49.240;8.548;2023-03-01T04:26:04;2.50;60.20
19567;DHT22;9930;49.240;8.548;2023-03-01T04:28:35;2.50;60.20
19567;DHT22;9930;49.240;8.548;2023-03-01T04:31:16;2.50;60.50
19567;DHT22;9930;49.240;8.548;2023-03-01T04:33:52;2.50;60.40
19567;DHT22;9930;49.240;8.548;2023-03-01T04:36:26;2.50;60.40
19567;DHT22;9930;49.240;8.548;2023-03-01T04:38:53;2.50;60.10
19567;DHT22;9930;49.240;8.548;2023-03-01T04:41:21;2.50;60.10
19567;DHT22;9930;49.240;8.548;2023-03-01T04:43:49;2.50;60.20
19567;DHT22;9930;49.240;8.548;2023-03-01T04:46:18;2.50;60.30
19567;DHT22;9930;49.240;8.548;2023-03-01T04:48:47;2.40;60.40
19567;DHT22;9930;49.240;8.548;2023-03-01T04:51:13;2.40;60.50
19567;DHT22;9930;49.240;8.548;2023-03-01T04:53:40;2.40;60.80
19567;DHT22;9930;49.240;8.548;2023-03-01T04:56:06;2.40;60.90
19567;DHT22;9930;49.240;8.548;2023-03-01T04:58:32;2.40;60.90
19567;DHT22;9930;49.240;8.548;2023-03-01T05:01:00;2.40;60.90
19567;DHT22;9930;49.240;8.548;2023-03-01T05:03:36;2.40;61.00
19567;DHT22;9930;49.240;8.548;2023-03-01T05:06:04;2.30;60.90
19567;DHT22;9930;49.240;8.548;2023-03-01T05:08:32;2.30;61.00
19567;DHT22;9930;49.240;8.548;2023-03-01T05:10:59;2.30;61.10
19567;DHT22;9930;49.240;8.548;2023-03-01T05:13:28;2.30;61.20
19567;DHT22;9930;49.240;8.548;2023-03-01T05:16:01;2.30;61.30
19567;DHT22;9930;49.240;8.548;2023-03-01T05:18:30;2.20;61.30
19567;DHT22;9930;49.240;8.548;2023-03-01T05:21:08;2.20;61.40
19567;DHT22;9930;49.240;8.548;2023-03-01T05:23:37;2.20;61.60
19567;DHT22;9930;49.240;8.548;2023-03-01T05:26:05;2.20;61.50
19567;DHT22;9930;49.240;8.548;2023-03-01T05:28:37;2.20;61.60
19567;DHT22;9930;49.240;8.548;2023-03-01T05:31:07;2.10;61.70
19567;DHT22;9930;49.240;8.548;2023-03-01T05:33:39;2.10;61.70
19567;DHT22;9930;49.240;8.548;2023-03-01T05:36:07;2.10;61.80
19567;DHT22;9930;49.240;8.548;2023-03-01T05:38:35;2.10;61.80
19567;DHT22;9930;49.240;8.548;2023-03-01T05:41:04;2.10;61.80
19567;DHT22;9930;49.240;8.548;2023-03-01T05:43:36;2.10;61.80
19567;DHT22;9930;49.240;8.548;2023-03-01T05:46:02;2.10;61.80
19567;DHT22;9930;49.240;8.548;2023-03-01T05:48:28;2.10;61.60
19567;DHT22;9930;49.240;8.548;2023-03-01T05:50:54;2.10;61.80
19567;DHT22;9930;49.240;8.548;2023-03-01T05:53:20;2.10;61.40
19567;DHT22;9930;49.240;8.548;2023-03-01T05:55:46;2.10;61.70
19567;DHT22;9930;49.240;8.548;2023-03-01T05:58:19;2.10;61.40
19567;DHT22;9930;49.240;8.548;2023-03-01T06:00:47;2.10;61.60
19567;DHT22;9930;49.240;8.548;2023-03-01T06:03:16;2.10;61.40
19567;DHT22;9930;49.240;8.548;2023-03-01T06:05:43;2.10;61.40
19567;DHT22;9930;49.240;8.548;2023-03-01T06:08:12;2.10;61.60
19567;DHT22;9930;49.240;8.548;2023-03-01T06:10:39;2.10;61.50
19567;DHT22;9930;49.240;8.548;2023-03-01T06:13:04;2.10;61.40
19567;DHT22;9930;49.240;8.548;2023-03-01T06:15:33;2.10;61.50
19567;DHT22;9930;49.240;8.548;2023-03-01T06:17:59;2.10;61.50
19567;DHT22;9930;49.240;8.548;2023-03-01T06:20:27;2.10;61.20
19567;DHT22;9930;49.240;8.548;2023-03-01T06:22:53;2.10;61.40
19567;DHT22;9930;49.240;8.548;2023-03-01T06:25:22;2.00;61.40
19567;DHT22;9930;49.240;8.548;2023-03-01T06:27:49;2.00;61.70
19567;DHT22;9930;49.240;8.548;2023-03-01T06:30:17;2.00;61.60
19567;DHT22;9930;49.240;8.548;2023-03-01T06:32:44;2.00;61.50
19567;DHT22;9930;49.240;8.548;2023-03-01T06:35:12;2.00;61.80
19567;DHT22;9930;49.240;8.548;2023-03-01T06:37:40;2.00;62.00
19567;DHT22;9930;49.240;8.548;2023-03-01T06:40:10;2.00;61.90
19567;DHT22;9930;49.240;8.548;2023-03-01T06:42:38;2.00;62.00
19567;DHT22;9930;49.240;8.548;2023-03-01T06:45:08;2.10;62.10
19567;DHT22;9930;49.240;8.548;2023-03-01T06:47:36;2.10;62.30
19567;DHT22;9930;49.240;8.548;2023-03-01T06:50:03;2.10;62.20
19567;DHT22;9930;49.240;8.548;2023-03-01T06:52:32;2.10;62.20
19567;DHT22;9930;49.240;8.548;2023-03-01T06:55:04;2.10;62.10
19567;DHT22;9930;49.240;8.548;2023-03-01T06:57:33;2.10;62.10
19567;DHT22;9930;49.240;8.548;2023-03-01T07:00:03;2.20;62.10
19567;DHT22;9930;49.240;8.548;2023-03-01T07:02:33;2.20;62.40
19567;DHT22;9930;49.240;8.548;2023-03-01T07:04:59;2.20;62.60
19567;DHT22;9930;49.240;8.548;2023-03-01T07:07:28;2.20;62.50
19567;DHT22;9930;49.240;8.548;2023-03-01T07:09:56;2.20;62.50
19567;DHT22;9930;49.240;8.548;2023-03-01T07:12:24;2.30;62.50
19567;DHT22;9930;49.240;8.548;2023-03-01T07:14:50;2.30;62.60
19567;DHT22;9930;49.240;8.548;2023-03-01T07:17:16;2.40;62.80
19567;DHT22;9930;49.240;8.548;2023-03-01T07:19:44;2.50;62.60
19567;DHT22;9930;49.240;8.548;2023-03-01T07:22:10;2.50;62.60
19567;DHT22;9930;49.240;8.548;2023-03-01T07:24:38;2.60;62.50
19567;DHT22;9930;49.240;8.548;2023-03-01T07:27:07;2.60;62.70
19567;DHT22;9930;49.240;8.548;2023-03-01T07:29:32;2.70;62.60
19567;DHT22;9930;49.240;8.548;2023-03-01T07:31:58;2.80;62.80
19567;DHT22;9930;49.240;8.548;2023-03-01T07:34:26;2.90;62.60
19567;DHT22;9930;49.240;8.548;2023-03-01T07:36:52;2.90;62.70
19567;DHT22;9930;49.240;8.548;2023-03-01T07:39:18;3.00;62.60
19567;DHT22;9930;49.240;8.548;2023-03-01T07:41:44;3.00;63.00
19567;DHT22;9930;49.240;8.548;2023-03-01T07:44:10;3.10;62.50
19567;DHT22;9930;49.240;8.548;2023-03-01T07:46:36;3.20;62.70
19567;DHT22;9930;49.240;8.548;2023-03-01T07:49:02;3.30;62.30
19567;DHT22;9930;49.240;8.548;2023-03-01T07:51:27;3.30;62.40
19567;DHT22;9930;49.240;8.548;2023-03-01T07:53:54;3.40;62.30
19567;DHT22;9930;49.240;8.548;2023-03-01T07:56:20;3.40;63.00
19567;DHT22;9930;49.240;8.548;2023-03-01T07:58:49;3.50;62.30
19567;DHT22;9930;49.240;8.548;2023-03-01T08:01:17;3.60;62.50
19567;DHT22;9930;49.240;8.548;2023-03-01T08:03:45;3.60;62.60
19567;DHT22;9930;49.240;8.548;2023-03-01T08:06:12;3.70;62.30
19567;DHT22;9930;49.240;8.548;2023-03-01T08:08:39;3.80;62.30
19567;DHT22;9930;49.240;8.548;2023-03-01T08:11:09;3.90;62.30
19567;DHT22;9930;49.240;8.548;2023-03-01T08:13:39;4.00;62.20
19567;DHT22;9930;49.240;8.548;2023-03-01T08:16:10;4.00;62.10
19567;DHT22;9930;49.240;8.548;2023-03-01T08:18:37;4.10;62.00
19567;DHT22;9930;49.240;8.548;2023-03-01T08:21:15;4.20;62.00
19567;DHT22;9930;49.240;8.548;2023-03-01T08:23:43;4.30;62.00
19567;DHT22;9930;49.240;8.548;2023-03-01T08:28:39;4.40;61.90
19567;DHT22;9930;49.240;8.548;2023-03-01T08:31:29;4.50;61.80
19567;DHT22;9930;49.240;8.548;2023-03-01T08:34:07;4.60;62.20
19567;DHT22;9930;49.240;8.548;2023-03-01T08:36:40;4.70;61.60
19567;DHT22;9930;49.240;8.548;2023-03-01T08:39:11;4.80;61.40
19567;DHT22;9930;49.240;8.548;2023-03-01T08:41:39;4.90;61.40
19567;DHT22;9930;49.240;8.548;2023-03-01T08:44:10;4.90;62.00
19567;DHT22;9930;49.240;8.548;2023-03-01T08:46:38;5.10;61.10
19567;DHT22;9930;49.240;8.548;2023-03-01T08:49:18;5.10;60.80
19567;DHT22;9930;49.240;8.548;2023-03-01T08:51:47;5.20;60.80
19567;DHT22;9930;49.240;8.548;2023-03-01T08:54:19;5.20;60.70
19567;DHT22;9930;49.240;8.548;2023-03-01T08:56:48;5.30;60.80
19567;DHT22;9930;49.240;8.548;2023-03-01T08:59:17;5.30;60.80
19567;DHT22;9930;49.240;8.548;2023-03-01T09:01:44;5.40;60.70
19567;DHT22;9930;49.240;8.548;2023-03-01T09:04:14;5.50;60.70
19567;DHT22;9930;49.240;8.548;2023-03-01T09:06:40;5.60;60.70
19567;DHT22;9930;49.240;8.548;2023-03-01T09:09:10;5.60;60.40
19567;DHT22;9930;49.240;8.548;2023-03-01T09:11:40;5.70;60.40
19567;DHT22;9930;49.240;8.548;2023-03-01T09:14:06;5.70;60.30
19567;DHT22;9930;49.240;8.548;2023-03-01T09:16:32;5.80;60.10
19567;DHT22;9930;49.240;8.548;2023-03-01T09:19:03;5.90;60.10
19567;DHT22;9930;49.240;8.548;2023-03-01T09:21:31;6.00;59.90
19567;DHT22;9930;49.240;8.548;2023-03-01T09:24:01;6.00;59.90
19567;DHT22;9930;49.240;8.548;2023-03-01T09:26:30;6.00;59.90
19567;DHT22;9930;49.240;8.548;2023-03-01T09:28:56;6.10;59.90
19567;DHT22;9930;49.240;8.548;2023-03-01T09:31:23;6.20;59.80
19567;DHT22;9930;49.240;8.548;2023-03-01T09:33:52;6.30;59.80
19567;DHT22;9930;49.240;8.548;2023-03-01T09:36:21;6.30;59.70
19567;DHT22;9930;49.240;8.548;2023-03-01T09:38:51;6.40;59.50
19567;DHT22;9930;49.240;8.548;2023-03-01T09:47:03;6.60;59.50
19567;DHT22;9930;49.240;8.548;2023-03-01T09:49:40;6.70;59.10
19567;DHT22;9930;49.240;8.548;2023-03-01T09:52:30;6.70;59.10
19567;DHT22;9930;49.240;8.548;2023-03-01T09:55:12;6.80;59.20
19567;DHT22;9930;49.240;8.548;2023-03-01T09:57:49;6.80;59.10
19567;DHT22;9930;49.240;8.548;2023-03-01T10:00:42;6.90;59.00
19567;DHT22;9930;49.240;8.548;2023-03-01T10:11:20;7.10;58.80
19567;DHT22;9930;49.240;8.548;2023-03-01T10:20:30;7.30;58.70
19567;DHT22;9930;49.240;8.548;2023-03-01T10:23:09;7.40;58.50
19567;DHT22;9930;49.240;8.548;2023-03-01T10:25:42;7.50;58.50
19567;DHT22;9930;49.240;8.548;2023-03-01T10:28:26;7.50;58.40
19567;DHT22;9930;49.240;8.548;2023-03-01T10:30:59;7.50;58.20
19567;DHT22;9930;49.240;8.548;2023-03-01T10:33:30;7.60;58.40
19567;DHT22;9930;49.240;8.548;2023-03-01T10:36:01;7.60;58.40
19567;DHT22;9930;49.240;8.548;2023-03-01T10:38:48;7.70;58.40
19567;DHT22;9930;49.240;8.548;2023-03-01T10:41:14;7.80;58.40
19567;DHT22;9930;49.240;8.548;2023-03-01T10:46:31;7.90;58.10
19567;DHT22;9930;49.240;8.548;2023-03-01T10:49:21;8.00;57.80
19567;DHT22;9930;49.240;8.548;2023-03-01T10:51:50;8.00;57.70
19567;DHT22;9930;49.240;8.548;2023-03-01T10:57:03;8.20;57.90
19567;DHT22;9930;49.240;8.548;2023-03-01T11:02:23;8.40;57.10
19567;DHT22;9930;49.240;8.548;2023-03-01T11:05:18;8.40;57.20
19567;DHT22;9930;49.240;8.548;2023-03-01T11:07:56;8.50;57.50
19567;DHT22;9930;49.240;8.548;2023-03-01T11:10:28;8.60;57.50
19567;DHT22;9930;49.240;8.548;2023-03-01T11:13:13;8.60;57.50
19567;DHT22;9930;49.240;8.548;2023-03-01T11:15:42;8.70;57.40
19567;DHT22;9930;49.240;8.548;2023-03-01T11:18:22;8.80;57.30
19567;DHT22;9930;49.240;8.548;2023-03-01T11:20:53;8.90;56.90
19567;DHT22;9930;49.240;8.548;2023-03-01T11:23:21;8.90;56.90
19567;DHT22;9930;49.240;8.548;2023-03-01T11:25:56;9.00;56.90
19567;DHT22;9930;49.240;8.548;2023-03-01T11:28:31;9.10;56.80
19567;DHT22;9930;49.240;8.548;2023-03-01T11:31:03;9.10;56.70
19567;DHT22;9930;49.240;8.548;2023-03-01T11:39:42;9.20;55.70
19567;DHT22;9930;49.240;8.548;2023-03-01T11:42:25;9.20;56.20
19567;DHT22;9930;49.240;8.548;2023-03-01T11:45:11;9.30;56.10
19567;DHT22;9930;49.240;8.548;2023-03-01T11:50:40;9.40;56.00
19567;DHT22;9930;49.240;8.548;2023-03-01T12:11:03;9.60;55.10
19567;DHT22;9930;49.240;8.548;2023-03-01T12:13:56;9.70;55.60
19567;DHT22;9930;49.240;8.548;2023-03-01T12:20:08;9.70;55.20
19567;DHT22;9930;49.240;8.548;2023-03-01T12:28:41;9.80;54.60
19567;DHT22;9930;49.240;8.548;2023-03-01T12:40:43;10.10;55.00
19567;DHT22;9930;49.240;8.548;2023-03-01T12:51:39;10.30;54.80
19567;DHT22;9930;49.240;8.548;2023-03-01T12:54:26;10.30;54.70
19567;DHT22;9930;49.240;8.548;2023-03-01T12:57:06;10.30;53.40
19567;DHT22;9930;49.240;8.548;2023-03-01T12:59:46;10.30;54.10
19567;DHT22;9930;49.240;8.548;2023-03-01T13:10:50;10.50;54.20
19567;DHT22;9930;49.240;8.548;2023-03-01T13:13:27;10.50;54.30
19567;DHT22;9930;49.240;8.548;2023-03-01T13:15:57;10.50;54.30
19567;DHT22;9930;49.240;8.548;2023-03-01T13:18:49;10.60;54.10
19567;DHT22;9930;49.240;8.548;2023-03-01T13:21:30;10.60;54.10
19567;DHT22;9930;49.240;8.548;2023-03-01T13:24:03;10.60;54.20
19567;DHT22;9930;49.240;8.548;2023-03-01T13:29:51;10.60;53.00
19567;DHT22;9930;49.240;8.548;2023-03-01T13:32:30;10.70;53.60
19567;DHT22;9930;49.240;8.548;2023-03-01T13:35:44;10.70;53.90
19567;DHT22;9930;49.240;8.548;2023-03-01T13:41:04;10.70;53.50
19567;DHT22;9930;49.240;8.548;2023-03-01T13:43:36;10.80;53.90
19567;DHT22;9930;49.240;8.548;2023-03-01T13:46:25;10.70;53.80
19567;DHT22;9930;49.240;8.548;2023-03-01T13:48:54;10.80;54.10
19567;DHT22;9930;49.240;8.548;2023-03-01T13:51:26;10.80;53.40
19567;DHT22;9930;49.240;8.548;2023-03-01T13:53:56;10.90;53.30
19567;DHT22;9930;49.240;8.548;2023-03-01T13:56:27;10.90;53.40
19567;DHT22;9930;49.240;8.548;2023-03-01T13:59:13;10.90;53.40
19567;DHT22;9930;49.240;8.548;2023-03-01T14:02:13;10.90;53.00
19567;DHT22;9930;49.240;8.548;2023-03-01T14:04:39;10.90;52.60
19567;DHT22;9930;49.240;8.548;2023-03-01T14:07:27;10.90;53.00
19567;DHT22;9930;49.240;8.548;2023-03-01T14:10:03;10.90;52.70
19567;DHT22;9930;49.240;8.548;2023-03-01T14:15:38;10.90;53.10
19567;DHT22;9930;49.240;8.548;2023-03-01T14:18:20;10.90;53.10
19567;DHT22;9930;49.240;8.548;2023-03-01T14:20:55;10.90;53.10
19567;DHT22;9930;49.240;8.548;2023-03-01T14:23:24;10.90;53.10
19567;DHT22;9930;49.240;8.548;2023-03-01T14:25:54;10.90;53.00
19567;DHT22;9930;49.240;8.548;2023-03-01T14:28:30;10.90;53.00
19567;DHT22;9930;49.240;8.548;2023-03-01T14:31:01;10.90;52.60
19567;DHT22;9930;49.240;8.548;2023-03-01T14:33:34;11.00;52.90
19567;DHT22;9930;49.240;8.548;2023-03-01T14:36:11;11.00;52.90
19567;DHT22;9930;49.240;8.548;2023-03-01T14:38:40;11.00;52.90
19567;DHT22;9930;49.240;8.548;2023-03-01T14:41:19;10.90;52.90
19567;DHT22;9930;49.240;8.548;2023-03-01T14:43:56;10.90;52.80
19567;DHT22;9930;49.240;8.548;2023-03-01T14:46:38;11.00;52.70
19567;DHT22;9930;49.240;8.548;2023-03-01T14:52:19;10.90;52.30
19567;DHT22;9930;49.240;8.548;2023-03-01T14:54:50;10.90;52.50
19567;DHT22;9930;49.240;8.548;2023-03-01T14:57:23;10.90;52.60
19567;DHT22;9930;49.240;8.548;2023-03-01T14:59:57;10.90;52.50
19567;DHT22;9930;49.240;8.548;2023-03-01T15:02:27;10.90;52.40
19567;DHT22;9930;49.240;8.548;2023-03-01T15:04:56;10.90;52.60
19567;DHT22;9930;49.240;8.548;2023-03-01T15:07:35;10.90;52.60
19567;DHT22;9930;49.240;8.548;2023-03-01T15:10:07;10.90;52.30
19567;DHT22;9930;49.240;8.548;2023-03-01T15:12:41;10.90;52.40
19567;DHT22;9930;49.240;8.548;2023-03-01T15:18:00;10.90;52.00
19567;DHT22;9930;49.240;8.548;2023-03-01T15:20:29;10.90;52.30
19567;DHT22;9930;49.240;8.548;2023-03-01T15:23:02;10.90;52.60
19567;DHT22;9930;49.240;8.548;2023-03-01T15:25:32;10.90;52.40
19567;DHT22;9930;49.240;8.548;2023-03-01T15:28:01;10.90;52.30
19567;DHT22;9930;49.240;8.548;2023-03-01T15:30:37;10.90;52.30
19567;DHT22;9930;49.240;8.548;2023-03-01T15:35:54;10.80;52.20
19567;DHT22;9930;49.240;8.548;2023-03-01T15:43:57;10.80;52.20
19567;DHT22;9930;49.240;8.548;2023-03-01T15:46:34;10.80;52.50
19567;DHT22;9930;49.240;8.548;2023-03-01T15:49:27;10.70;52.40
19567;DHT22;9930;49.240;8.548;2023-03-01T15:51:57;10.70;52.30
19567;DHT22;9930;49.240;8.548;2023-03-01T15:54:25;10.70;52.50
19567;DHT22;9930;49.240;8.548;2023-03-01T15:56:55;10.70;53.10
19567;DHT22;9930;49.240;8.548;2023-03-01T15:59:21;10.60;52.50
19567;DHT22;9930;49.240;8.548;2023-03-01T16:01:48;10.70;52.20
19567;DHT22;9930;49.240;8.548;2023-03-01T16:04:16;10.60;52.40
19567;DHT22;9930;49.240;8.548;2023-03-01T16:06:49;10.60;52.40
19567;DHT22;9930;49.240;8.548;2023-03-01T16:09:27;10.60;52.40
19567;DHT22;9930;49.240;8.548;2023-03-01T16:11:53;10.50;52.20
19567;DHT22;9930;49.240;8.548;2023-03-01T16:14:20;10.50;52.50
19567;DHT22;9930;49.240;8.548;2023-03-01T16:16:46;10.50;52.30
19567;DHT22;9930;49.240;8.548;2023-03-01T16:19:17;10.50;52.20
19567;DHT22;9930;49.240;8.548;2023-03-01T16:21:43;10.40;52.30
19567;DHT22;9930;49.240;8.548;2023-03-01T16:24:14;10.40;52.40
19567;DHT22;9930;49.240;8.548;2023-03-01T16:26:40;10.40;52.40
19567;DHT22;9930;49.240;8.548;2023-03-01T16:29:08;10.30;52.30
19567;DHT22;9930;49.240;8.548;2023-03-01T16:31:36;10.30;52.30
19567;DHT22;9930;49.240;8.548;2023-03-01T16:34:03;10.30;52.40
19567;DHT22;9930;49.240;8.548;2023-03-01T16:36:28;10.20;52.70
19567;DHT22;9930;49.240;8.548;2023-03-01T16:38:55;10.20;52.90
19567;DHT22;9930;49.240;8.548;2023-03-01T16:41:26;10.20;52.30
19567;DHT22;9930;49.240;8.548;2023-03-01T16:43:52;10.10;52.90
19567;DHT22;9930;49.240;8.548;2023-03-01T16:46:27;10.10;52.40
19567;DHT22;9930;49.240;8.548;2023-03-01T16:48:56;10.00;52.20
19567;DHT22;9930;49.240;8.548;2023-03-01T16:51:23;10.00;52.30
19567;DHT22;9930;49.240;8.548;2023-03-01T16:53:55;9.90;52.30
19567;DHT22;9930;49.240;8.548;2023-03-01T16:56:20;9.90;52.40
19567;DHT22;9930;49.240;8.548;2023-03-01T16:58:51;9.90;52.40
19567;DHT22;9930;49.240;8.548;2023-03-01T17:01:19;9.80;52.40
19567;DHT22;9930;49.240;8.548;2023-03-01T17:03:49;9.80;52.50
19567;DHT22;9930;49.240;8.548;2023-03-01T17:06:19;9.70;52.50
19567;DHT22;9930;49.240;8.548;2023-03-01T17:08:47;9.70;52.50
19567;DHT22;9930;49.240;8.548;2023-03-01T17:11:17;9.70;52.50
19567;DHT22;9930;49.240;8.548;2023-03-01T17:13:46;9.60;52.50
19567;DHT22;9930;49.240;8.548;2023-03-01T17:16:17;9.60;52.50
19567;DHT22;9930;49.240;8.548;2023-03-01T17:18:45;9.50;52.50
19567;DHT22;9930;49.240;8.548;2023-03-01T17:21:14;9.50;52.60
19567;DHT22;9930;49.240;8.548;2023-03-01T17:23:44;9.40;52.60
19567;DHT22;9930;49.240;8.548;2023-03-01T17:26:11;9.40;52.60
19567;DHT22;9930;49.240;8.548;2023-03-01T17:28:38;9.30;52.70
19567;DHT22;9930;49.240;8.548;2023-03-01T17:31:06;9.30;52.70
19567;DHT22;9930;49.240;8.548;2023-03-01T17:33:35;9.20;52.70
19567;DHT22;9930;49.240;8.548;2023-03-01T17:36:04;9.20;52.80
19567;DHT22;9930;49.240;8.548;2023-03-01T17:38:34;9.10;52.80
19567;DHT22;9930;49.240;8.548;2023-03-01T17:41:03;9.10;52.90
19567;DHT22;9930;49.240;8.548;2023-03-01T17:43:30;9.00;52.90
19567;DHT22;9930;49.240;8.548;2023-03-01T17:45:59;8.90;52.90
19567;DHT22;9930;49.240;8.548;2023-03-01T17:48:27;8.90;52.90
19567;DHT22;9930;49.240;8.548;2023-03-01T17:50:55;8.80;53.00
19567;DHT22;9930;49.240;8.548;2023-03-01T17:53:23;8.70;53.00
19567;DHT22;9930;49.240;8.548;2023-03-01T17:55:49;8.70;53.10
19567;DHT22;9930;49.240;8.548;2023-03-01T17:58:21;8.60;53.10
19567;DHT22;9930;49.240;8.548;2023-03-01T18:00:48;8.50;53.10
19567;DHT22;9930;49.240;8.548;2023-03-01T18:03:15;8.40;53.20
19567;DHT22;9930;49.240;8.548;2023-03-01T18:05:42;8.40;53.30
19567;DHT22;9930;49.240;8.548;2023-03-01T18:08:08;8.30;53.30
19567;DHT22;9930;49.240;8.548;2023-03-01T18:10:35;8.30;53.40
19567;DHT22;9930;49.240;8.548;2023-03-01T18:13:05;8.20;53.40
19567;DHT22;9930;49.240;8.548;2023-03-01T18:15:32;8.10;53.60
19567;DHT22;9930;49.240;8.548;2023-03-01T18:17:58;8.00;53.60
19567;DHT22;9930;49.240;8.548;2023-03-01T18:20:27;8.00;53.70
19567;DHT22;9930;49.240;8.548;2023-03-01T18:22:57;7.90;53.70
19567;DHT22;9930;49.240;8.548;2023-03-01T18:25:23;7.80;53.80
19567;DHT22;9930;49.240;8.548;2023-03-01T18:27:50;7.80;53.90